Time;durP1;ratioP1;P1;durP2;ratioP2;P2;SDS_P1;SDS_P2;PMS_P1;PMS_P2;Temp;Humidity;BMP_temperature;BMP_pressure;BME280_temperature;BME280_humidity;BME280_pressure;Samples;Min_cycle;Max_cycle;Signal;HPM_P1;HPM_P2
2024/04/24 00:00:27;;;;;;;22.13;15.60;;;3.50;99.90;;;;;;5343331;26;20229;-86
2024/04/24 00:03:00;;;;;;;20.73;15.20;;;3.50;99.90;;;;;;5330495;26;20233;-87
2024/04/24 00:05:28;;;;;;;20.97;15.63;;;3.50;99.90;;;;;;5338631;26;20241;-86
2024/04/24 00:07:57;;;;;;;22.17;16.63;;;3.50;99.90;;;;;;5344200;26;20686;-87
2024/04/24 00:10:28;;;;;;;21.30;15.90;;;3.40;99.90;;;;;;5343460;26;20249;-86
2024/04/24 00:12:57;;;;;;;20.90;15.33;;;3.40;99.90;;;;;;5341822;26;20276;-87
2024/04/24 00:15:26;;;;;;;22.67;16.37;;;3.30;99.90;;;;;;5336016;26;20257;-86
2024/04/24 00:17:54;;;;;;;18.97;14.77;;;3.30;99.90;;;;;;5344539;26;20304;-87
2024/04/24 00:20:23;;;;;;;22.47;15.53;;;3.30;99.90;;;;;;5331721;26;20242;-87
2024/04/24 00:22:52;;;;;;;21.37;15.73;;;3.30;99.90;;;;;;5339029;26;20271;-86
2024/04/24 00:25:20;;;;;;;20.53;15.47;;;3.30;99.90;;;;;;5336379;26;20238;-86
2024/04/24 00:27:56;;;;;;;19.57;14.73;;;3.30;99.90;;;;;;5327858;26;21434;-86
2024/04/24 00:30:25;;;;;;;20.63;14.80;;;3.60;99.90;;;;;;5338692;26;20346;-87
2024/04/24 00:32:55;;;;;;;19.00;14.97;;;3.60;99.90;;;;;;5341999;26;20325;-87
2024/04/24 00:35:24;;;;;;;18.50;14.37;;;3.60;99.90;;;;;;5322681;26;20288;-86
2024/04/24 00:37:52;;;;;;;18.47;14.40;;;3.60;99.90;;;;;;5334933;26;20441;-87
2024/04/24 00:40:21;;;;;;;19.43;14.87;;;3.50;99.90;;;;;;5336464;26;20785;-86
2024/04/24 00:42:52;;;;;;;19.10;14.33;;;3.50;99.90;;;;;;5334251;26;20809;-86
2024/04/24 00:45:21;;;;;;;19.93;15.03;;;3.50;99.90;;;;;;5338591;26;20230;-87
2024/04/24 00:47:51;;;;;;;19.03;14.90;;;3.60;99.90;;;;;;5340893;26;20257;-87
2024/04/24 00:50:20;;;;;;;19.03;14.23;;;3.60;99.90;;;;;;5336690;26;20305;-87
2024/04/24 00:52:49;;;;;;;20.37;15.33;;;3.60;99.90;;;;;;5335938;26;20233;-87
2024/04/24 00:55:18;;;;;;;17.60;13.43;;;3.60;99.90;;;;;;5343453;26;20450;-87
2024/04/24 00:57:47;;;;;;;21.33;15.47;;;3.50;99.90;;;;;;5343779;26;20225;-87
2024/04/24 01:00:19;;;;;;;20.27;15.07;;;3.50;99.90;;;;;;5339072;26;20295;-86
2024/04/24 01:02:47;;;;;;;19.50;15.17;;;3.50;99.90;;;;;;5342037;26;20297;-87
2024/04/24 01:05:17;;;;;;;20.77;14.73;;;3.50;99.90;;;;;;5351278;26;20245;-86
2024/04/24 01:07:46;;;;;;;18.60;14.53;;;3.50;99.90;;;;;;5343130;26;20261;-86
2024/04/24 01:10:16;;;;;;;20.10;14.63;;;3.60;99.90;;;;;;5347702;26;20356;-87
2024/04/24 01:12:48;;;;;;;20.17;14.73;;;3.50;99.90;;;;;;5324521;26;20237;-87
2024/04/24 01:15:19;;;;;;;18.53;14.17;;;3.50;99.90;;;;;;5340502;26;20264;-87
2024/04/24 01:17:51;;;;;;;19.57;14.77;;;3.40;99.90;;;;;;5345203;26;20312;-87
2024/04/24 01:20:25;;;;;;;19.13;14.87;;;3.40;99.90;;;;;;5340297;26;20577;-87
2024/04/24 01:23:17;;;;;;;22.43;15.10;;;3.40;99.90;;;;;;5332195;26;20296;-87
2024/04/24 01:25:52;;;;;;;18.10;14.93;;;3.40;99.90;;;;;;5345816;26;20319;-87
2024/04/24 01:28:26;;;;;;;20.80;15.10;;;3.40;99.90;;;;;;5326567;26;20365;-87
2024/04/24 01:30:54;;;;;;;20.97;14.97;;;3.50;99.90;;;;;;5346826;26;20237;-87
2024/04/24 01:33:23;;;;;;;20.60;15.13;;;3.50;99.90;;;;;;5340095;26;20293;-87
2024/04/24 01:35:52;;;;;;;18.83;14.07;;;3.50;99.90;;;;;;5344329;26;20320;-87
2024/04/24 01:38:18;;;;;;;19.60;15.33;;;3.40;99.90;;;;;;5341076;26;20346;-87
2024/04/24 01:40:47;;;;;;;19.37;15.07;;;3.40;99.90;;;;;;5344589;26;20642;-87
2024/04/24 01:43:15;;;;;;;21.83;15.67;;;3.40;99.90;;;;;;5351081;26;20794;-87
2024/04/24 01:45:47;;;;;;;20.83;14.97;;;3.30;99.90;;;;;;5343480;26;20379;-87
2024/04/24 01:48:15;;;;;;;19.03;14.63;;;3.30;99.90;;;;;;5330646;26;20615;-87
2024/04/24 01:50:44;;;;;;;19.97;14.83;;;3.40;99.90;;;;;;5354047;26;20845;-86
2024/04/24 01:53:13;;;;;;;21.90;15.83;;;3.30;99.90;;;;;;5351738;26;20855;-87
2024/04/24 01:55:42;;;;;;;20.77;14.57;;;3.30;99.90;;;;;;5346689;26;20241;-87
2024/04/24 01:58:10;;;;;;;19.53;15.40;;;3.40;99.90;;;;;;5334675;26;20248;-87
2024/04/24 02:00:39;;;;;;;20.10;15.77;;;3.40;99.90;;;;;;5330113;26;20250;-87
2024/04/24 02:03:10;;;;;;;21.20;15.33;;;3.30;99.90;;;;;;5333239;26;20648;-87
2024/04/24 02:05:39;;;;;;;21.23;15.70;;;3.30;99.90;;;;;;5330119;26;20330;-87
2024/04/24 02:08:08;;;;;;;24.77;16.57;;;3.30;99.90;;;;;;5344020;26;20305;-87
2024/04/24 02:10:37;;;;;;;21.43;15.97;;;3.30;99.90;;;;;;5346634;26;20276;-87
2024/04/24 02:13:08;;;;;;;21.23;16.20;;;3.30;99.90;;;;;;5340552;26;20342;-87
2024/04/24 02:15:36;;;;;;;20.17;16.27;;;3.30;99.90;;;;;;5346062;26;20307;-87
2024/04/24 02:18:06;;;;;;;23.23;15.50;;;3.30;99.90;;;;;;5344887;26;20249;-87
2024/04/24 02:20:38;;;;;;;20.70;16.20;;;3.30;99.90;;;;;;5345714;26;20238;-85
2024/04/24 02:23:07;;;;;;;22.50;16.03;;;3.20;99.90;;;;;;5366467;26;20241;-87
2024/04/24 02:25:33;;;;;;;20.37;15.80;;;3.20;99.90;;;;;;5334739;26;20325;-87
2024/04/24 02:28:01;;;;;;;21.23;15.80;;;3.20;99.90;;;;;;5343820;26;20264;-85
2024/04/24 02:30:30;;;;;;;22.77;16.00;;;3.20;99.90;;;;;;5344704;26;20356;-85
2024/04/24 02:32:58;;;;;;;23.17;16.67;;;3.20;99.90;;;;;;5340323;26;20800;-85
2024/04/24 02:35:27;;;;;;;20.73;15.53;;;3.20;99.90;;;;;;5336144;26;20282;-84
2024/04/24 02:37:58;;;;;;;23.13;16.00;;;3.20;99.90;;;;;;5337746;26;20804;-85
2024/04/24 02:40:27;;;;;;;19.83;15.93;;;3.20;99.90;;;;;;5344122;26;20245;-84
2024/04/24 02:42:55;;;;;;;20.73;16.00;;;3.30;99.90;;;;;;5356814;26;20249;-85
2024/04/24 02:45:24;;;;;;;23.77;15.90;;;3.20;99.90;;;;;;5335896;26;20348;-85
2024/04/24 02:47:50;;;;;;;20.70;15.97;;;3.20;99.90;;;;;;5338224;26;20245;-85
2024/04/24 02:50:18;;;;;;;23.67;17.10;;;3.20;99.90;;;;;;5348691;26;20347;-85
2024/04/24 02:52:47;;;;;;;24.07;16.17;;;3.20;99.90;;;;;;5343012;26;20350;-84
2024/04/24 02:55:18;;;;;;;21.47;15.73;;;3.20;99.90;;;;;;5333333;26;20339;-87
2024/04/24 02:57:46;;;;;;;22.30;16.67;;;3.20;99.90;;;;;;5339532;26;20651;-88
2024/04/24 03:00:16;;;;;;;22.03;16.00;;;3.20;99.90;;;;;;5331085;26;20281;-85
2024/04/24 03:02:44;;;;;;;21.70;15.83;;;3.20;99.90;;;;;;5340332;26;20366;-87
2024/04/24 03:05:13;;;;;;;21.80;15.70;;;3.20;99.90;;;;;;5320730;26;20309;-85
2024/04/24 03:07:41;;;;;;;21.73;15.70;;;3.30;99.90;;;;;;5331208;26;20354;-85
2024/04/24 03:10:10;;;;;;;21.53;16.00;;;3.30;99.90;;;;;;5335608;26;20297;-85
2024/04/24 03:12:42;;;;;;;23.27;16.10;;;3.20;99.90;;;;;;5339760;26;20328;-87
2024/04/24 03:15:10;;;;;;;21.13;14.90;;;3.30;99.90;;;;;;5332372;26;20241;-87
2024/04/24 03:17:41;;;;;;;20.97;15.83;;;3.30;99.90;;;;;;5338226;26;20284;-87
2024/04/24 03:20:10;;;;;;;21.37;15.73;;;3.30;99.90;;;;;;5343686;26;20279;-85
2024/04/24 03:22:39;;;;;;;23.07;16.73;;;3.30;99.90;;;;;;5330302;26;20234;-85
2024/04/24 03:25:08;;;;;;;22.30;16.73;;;3.20;99.90;;;;;;5342296;26;20280;-85
2024/04/24 03:27:37;;;;;;;23.23;16.53;;;3.20;99.90;;;;;;5335026;26;20245;-85
2024/04/24 03:30:09;;;;;;;20.63;16.13;;;3.20;99.90;;;;;;5342579;26;20603;-85
2024/04/24 03:32:38;;;;;;;21.90;16.30;;;3.20;99.90;;;;;;5346639;26;20233;-85
2024/04/24 03:35:07;;;;;;;21.83;16.10;;;3.20;99.90;;;;;;5350114;26;20363;-84
2024/04/24 03:37:36;;;;;;;22.00;16.73;;;3.20;99.90;;;;;;5344891;26;20708;-85
2024/04/24 03:40:04;;;;;;;22.23;15.93;;;3.30;99.90;;;;;;5357075;26;20249;-85
2024/04/24 03:42:33;;;;;;;22.93;16.53;;;3.30;99.90;;;;;;5343168;26;20346;-85
2024/04/24 03:45:02;;;;;;;27.93;16.60;;;3.30;99.90;;;;;;5344546;26;20334;-84
2024/04/24 03:47:33;;;;;;;23.37;16.60;;;3.20;99.90;;;;;;5336589;26;20268;-85
2024/04/24 03:50:02;;;;;;;22.43;16.77;;;3.20;99.90;;;;;;5340244;26;20238;-85
2024/04/24 03:52:30;;;;;;;20.33;15.90;;;3.20;99.90;;;;;;5340617;26;20233;-87
2024/04/24 03:54:59;;;;;;;19.60;15.37;;;3.30;99.90;;;;;;5346000;26;20338;-87
2024/04/24 03:57:28;;;;;;;24.30;16.80;;;3.30;99.90;;;;;;5334461;26;20241;-87
2024/04/24 03:59:56;;;;;;;20.10;15.63;;;3.30;99.90;;;;;;5332767;26;20301;-87
2024/04/24 04:02:25;;;;;;;20.67;15.37;;;3.30;99.90;;;;;;5329432;26;20294;-87
2024/04/24 04:04:56;;;;;;;21.33;15.73;;;3.40;99.90;;;;;;5341979;26;20276;-87
2024/04/24 04:07:25;;;;;;;24.60;16.90;;;3.40;99.90;;;;;;5339345;26;20391;-87
2024/04/24 04:09:54;;;;;;;21.27;15.63;;;3.40;99.90;;;;;;5333686;26;20333;-87
2024/04/24 04:12:22;;;;;;;22.00;15.53;;;3.40;99.90;;;;;;5343854;26;20237;-87
2024/04/24 04:14:51;;;;;;;19.63;15.33;;;3.50;99.90;;;;;;5343158;26;20225;-87
2024/04/24 04:17:20;;;;;;;21.10;16.07;;;3.50;99.90;;;;;;5331162;26;20364;-87
2024/04/24 04:19:48;;;;;;;19.10;14.60;;;3.50;99.90;;;;;;5338491;26;20233;-87
2024/04/24 04:22:19;;;;;;;21.23;15.33;;;3.50;99.90;;;;;;5327905;26;20377;-88
2024/04/24 04:24:48;;;;;;;19.50;15.03;;;3.40;99.90;;;;;;5342785;26;20284;-87
2024/04/24 04:27:17;;;;;;;19.03;15.43;;;3.50;99.90;;;;;;5333365;26;20666;-87
2024/04/24 04:29:45;;;;;;;21.67;15.43;;;3.50;99.90;;;;;;5345155;26;20856;-88
2024/04/24 04:32:14;;;;;;;21.50;14.43;;;3.60;99.90;;;;;;5332175;26;20348;-88
2024/04/24 04:34:44;;;;;;;22.77;15.00;;;3.60;99.90;;;;;;5339360;26;20773;-88
2024/04/24 04:37:13;;;;;;;19.43;14.63;;;3.70;99.90;;;;;;5327814;26;20975;-87
2024/04/24 04:39:44;;;;;;;19.23;14.67;;;3.60;99.90;;;;;;5347262;26;20264;-88
2024/04/24 04:42:13;;;;;;;18.50;14.73;;;3.60;99.90;;;;;;5331460;26;20277;-88
2024/04/24 04:44:42;;;;;;;22.67;15.23;;;3.50;99.90;;;;;;5330288;26;20297;-88
2024/04/24 04:47:10;;;;;;;19.53;14.50;;;3.60;99.90;;;;;;5346130;26;20335;-88
2024/04/24 04:49:39;;;;;;;19.30;15.40;;;3.60;99.90;;;;;;5351252;26;20245;-88
2024/04/24 04:52:08;;;;;;;21.03;14.63;;;3.50;99.90;;;;;;5341469;26;20694;-87
2024/04/24 04:54:36;;;;;;;19.70;14.93;;;3.50;99.90;;;;;;5339823;26;20293;-87
2024/04/24 04:57:07;;;;;;;17.97;14.53;;;3.50;99.90;;;;;;5346095;26;20330;-87
2024/04/24 04:59:36;;;;;;;18.17;14.07;;;3.60;99.90;;;;;;5365072;26;20362;-87
2024/04/24 05:02:05;;;;;;;18.07;14.30;;;3.70;99.90;;;;;;5345755;26;20285;-87
2024/04/24 05:04:33;;;;;;;19.90;13.83;;;3.70;99.90;;;;;;5346086;26;20706;-87
2024/04/24 05:07:02;;;;;;;22.37;14.93;;;3.70;99.90;;;;;;5337726;26;20259;-87
2024/04/24 05:09:32;;;;;;;23.67;15.47;;;3.70;99.90;;;;;;5330214;26;20623;-87
2024/04/24 05:12:00;;;;;;;20.93;14.70;;;3.70;99.90;;;;;;5332490;26;20272;-87
2024/04/24 05:14:32;;;;;;;19.90;14.27;;;3.60;99.90;;;;;;5345581;26;20237;-87
2024/04/24 05:17:00;;;;;;;21.03;14.97;;;3.70;99.90;;;;;;5340421;26;20234;-87
2024/04/24 05:19:29;;;;;;;19.20;13.90;;;3.70;99.90;;;;;;5345173;26;20233;-88
2024/04/24 05:21:57;;;;;;;20.03;14.20;;;3.80;99.90;;;;;;5330614;26;20309;-87
2024/04/24 05:24:26;;;;;;;19.33;13.83;;;3.80;99.90;;;;;;5333116;26;20304;-87
2024/04/24 05:29:56;;;;;;;18.07;13.93;;;4.00;99.70;;;;;;5238615;27;20284;-88
2024/04/24 05:32:25;;;;;;;20.43;14.93;;;4.10;99.10;;;;;;5219231;27;20237;-87
2024/04/24 05:34:53;;;;;;;20.93;14.33;;;4.10;98.80;;;;;;5288311;26;20342;-87
2024/04/24 05:37:22;;;;;;;17.97;13.63;;;4.20;98.70;;;;;;5345644;26;20610;-87
2024/04/24 05:39:48;;;;;;;20.70;14.23;;;4.20;99.00;;;;;;5335557;26;20284;-87
2024/04/24 05:42:16;;;;;;;17.10;13.13;;;4.30;98.70;;;;;;5344044;26;20242;-88
2024/04/24 05:44:45;;;;;;;18.63;14.10;;;4.30;98.50;;;;;;5337869;26;20673;-87
2024/04/24 05:47:16;;;;;;;22.23;15.03;;;4.30;98.40;;;;;;5337719;26;20302;-88
2024/04/24 05:49:45;;;;;;;18.30;13.87;;;4.40;98.20;;;;;;5331003;26;20819;-87
2024/04/24 05:52:13;;;;;;;16.57;13.33;;;4.40;97.90;;;;;;5329767;26;20621;-87
2024/04/24 05:54:42;;;;;;;17.57;13.70;;;4.60;97.60;;;;;;5336591;26;20268;-87
2024/04/24 05:57:10;;;;;;;17.87;13.63;;;4.50;97.50;;;;;;5339611;26;20318;-87
2024/04/24 05:59:39;;;;;;;17.30;13.53;;;4.50;97.30;;;;;;5340742;26;20238;-87
2024/04/24 06:02:08;;;;;;;15.37;12.77;;;4.50;97.60;;;;;;5337232;26;21537;-87
2024/04/24 06:04:39;;;;;;;17.50;13.93;;;4.50;97.60;;;;;;5341497;26;20339;-88
2024/04/24 06:07:08;;;;;;;18.97;14.13;;;4.70;97.30;;;;;;5341404;26;20427;-88
2024/04/24 06:09:38;;;;;;;18.07;14.03;;;4.60;97.30;;;;;;5303427;26;20676;-87
2024/04/24 06:12:07;;;;;;;17.67;14.50;;;4.60;97.40;;;;;;5340676;26;20241;-87
2024/04/24 06:14:36;;;;;;;20.23;13.00;;;4.60;97.60;;;;;;5343060;26;20289;-87
2024/04/24 06:17:07;;;;;;;16.53;13.60;;;4.70;97.60;;;;;;5342456;26;20382;-88
2024/04/24 06:19:35;;;;;;;17.27;13.23;;;4.70;97.00;;;;;;5341754;26;20241;-88
2024/04/24 06:22:07;;;;;;;16.33;12.87;;;4.80;97.10;;;;;;5339241;26;20253;-87
2024/04/24 06:24:35;;;;;;;16.77;12.53;;;4.80;96.70;;;;;;5337299;26;20238;-87
2024/04/24 06:27:04;;;;;;;16.50;13.67;;;4.70;96.70;;;;;;5344781;26;20356;-87
2024/04/24 06:29:34;;;;;;;18.53;13.53;;;4.80;96.90;;;;;;5339711;26;20288;-87
2024/04/24 06:32:03;;;;;;;15.57;12.93;;;4.90;96.80;;;;;;5346125;26;20297;-87
2024/04/24 06:34:31;;;;;;;15.93;13.03;;;5.10;96.10;;;;;;5334726;26;20285;-88
2024/04/24 06:37:00;;;;;;;17.50;12.80;;;5.10;95.70;;;;;;5340863;26;20237;-88
2024/04/24 06:39:34;;;;;;;15.43;12.70;;;5.20;95.10;;;;;;5341887;26;20584;-88
2024/04/24 06:42:02;;;;;;;14.52;12.48;;;5.20;95.10;;;;;;5343572;26;20293;-88
2024/04/24 06:44:31;;;;;;;16.47;13.20;;;5.30;95.10;;;;;;5338959;26;20246;-88
2024/04/24 06:47:00;;;;;;;16.53;13.10;;;5.20;95.10;;;;;;5334110;26;20251;-88
2024/04/24 06:49:28;;;;;;;16.57;12.40;;;5.30;95.10;;;;;;5329692;26;20320;-87
2024/04/24 06:51:57;;;;;;;16.47;13.13;;;5.50;94.60;;;;;;5333536;26;20247;-88
2024/04/24 06:54:26;;;;;;;14.53;11.97;;;5.50;94.60;;;;;;5333833;26;20289;-88
2024/04/24 06:56:57;;;;;;;15.97;11.97;;;5.50;95.00;;;;;;5341806;26;20359;-88
2024/04/24 06:59:28;;;;;;;15.18;12.70;;;5.70;95.20;;;;;;5345136;26;20276;-88
2024/04/24 07:01:57;;;;;;;14.38;11.88;;;5.80;94.70;;;;;;5345678;26;20774;-90
2024/04/24 07:04:25;;;;;;;15.23;12.45;;;5.90;95.30;;;;;;5343042;26;20301;-90
2024/04/24 07:06:54;;;;;;;13.95;11.38;;;6.10;94.80;;;;;;5336678;26;20352;-91
2024/04/24 07:09:22;;;;;;;15.38;11.93;;;6.30;93.10;;;;;;5338004;26;21062;-90
2024/04/24 07:11:51;;;;;;;14.50;11.15;;;6.20;92.60;;;;;;5343555;26;20822;-90
2024/04/24 07:14:22;;;;;;;14.98;12.20;;;6.10;92.60;;;;;;5342742;26;20368;-90
2024/04/24 07:16:51;;;;;;;14.88;12.15;;;6.00;93.50;;;;;;5339815;26;20285;-90
2024/04/24 07:19:20;;;;;;;13.35;11.02;;;6.10;93.20;;;;;;5333596;26;20241;-90
2024/04/24 07:21:48;;;;;;;13.90;11.95;;;6.20;92.60;;;;;;5342402;26;20795;-89
2024/04/24 07:24:17;;;;;;;14.38;11.77;;;6.20;93.60;;;;;;5331086;26;20376;-90
2024/04/24 07:26:47;;;;;;;13.57;11.32;;;6.50;92.70;;;;;;5338321;26;20699;-90
2024/04/24 07:29:16;;;;;;;14.05;11.55;;;6.60;92.40;;;;;;5336579;26;20293;-90
2024/04/24 07:31:47;;;;;;;13.20;11.00;;;6.80;92.50;;;;;;5344713;26;20343;-90
2024/04/24 07:34:16;;;;;;;12.65;9.93;;;7.00;92.10;;;;;;5342007;26;20292;-90
2024/04/24 07:36:45;;;;;;;13.63;10.98;;;7.40;90.60;;;;;;5329596;26;21074;-91
2024/04/24 07:39:14;;;;;;;13.32;10.38;;;7.80;90.20;;;;;;5344710;26;20656;-90
2024/04/24 07:41:42;;;;;;;11.88;10.23;;;7.90;88.70;;;;;;5343766;26;20249;-90
2024/04/24 07:44:11;;;;;;;11.25;9.65;;;7.90;85.60;;;;;;5340242;26;20237;-91
2024/04/24 07:46:40;;;;;;;11.50;9.90;;;7.90;86.30;;;;;;5318651;26;20286;-90
2024/04/24 07:49:11;;;;;;;10.77;9.68;;;7.80;85.00;;;;;;5356424;26;20621;-90
2024/04/24 07:51:40;;;;;;;10.38;9.15;;;7.90;80.00;;;;;;5346074;26;20301;-91
2024/04/24 07:54:08;;;;;;;10.65;9.23;;;7.80;82.50;;;;;;5342533;26;20229;-90
2024/04/24 07:56:37;;;;;;;10.80;9.23;;;7.90;83.00;;;;;;5338641;26;20241;-90
2024/04/24 07:59:03;;;;;;;10.45;9.35;;;7.90;83.50;;;;;;5340485;26;20236;-90
2024/04/24 08:01:31;;;;;;;9.80;8.60;;;7.80;83.30;;;;;;5338175;26;20324;-90
2024/04/24 08:04:00;;;;;;;10.45;8.88;;;7.90;82.30;;;;;;5337585;26;20289;-90
2024/04/24 08:06:31;;;;;;;10.90;8.30;;;8.30;77.80;;;;;;5346095;26;20281;-90
2024/04/24 08:09:00;;;;;;;13.00;8.95;;;8.50;75.20;;;;;;5340844;26;20404;-91
2024/04/24 08:11:29;;;;;;;11.48;8.73;;;8.30;76.40;;;;;;5327657;26;20749;-90
2024/04/24 08:13:57;;;;;;;9.82;8.43;;;8.20;73.00;;;;;;5339966;26;20245;-90
2024/04/24 08:16:26;;;;;;;10.30;8.43;;;8.00;77.40;;;;;;5349978;26;20283;-90
2024/04/24 08:18:54;;;;;;;10.45;8.32;;;8.30;74.80;;;;;;5344399;26;20839;-89
2024/04/24 08:21:23;;;;;;;10.55;8.30;;;8.20;75.40;;;;;;5348962;26;20240;-90
2024/04/24 08:23:54;;;;;;;9.55;8.55;;;8.60;74.70;;;;;;5349967;26;20683;-90
2024/04/24 08:26:23;;;;;;;9.07;8.02;;;8.70;73.60;;;;;;5319424;26;20235;-90
2024/04/24 08:28:52;;;;;;;8.68;7.50;;;8.50;60.40;;;;;;5364436;26;20314;-90
2024/04/24 08:31:21;;;;;;;10.07;7.38;;;8.80;56.10;;;;;;5344804;26;20316;-90
2024/04/24 08:33:49;;;;;;;9.63;7.47;;;9.30;52.50;;;;;;5326787;26;20681;-90
2024/04/24 08:36:18;;;;;;;10.05;7.38;;;9.80;48.10;;;;;;5346168;26;20618;-91
2024/04/24 08:38:47;;;;;;;9.45;7.38;;;9.90;45.90;;;;;;5344223;26;20241;-90
2024/04/24 08:41:18;;;;;;;7.65;6.95;;;9.80;48.10;;;;;;5339864;26;20276;-90
2024/04/24 08:43:48;;;;;;;10.50;7.43;;;9.30;44.20;;;;;;5343422;26;20364;-90
2024/04/24 08:46:17;;;;;;;8.45;7.53;;;9.00;47.50;;;;;;5341707;26;21393;-91
2024/04/24 08:48:46;;;;;;;8.05;7.00;;;9.00;47.50;;;;;;5340330;26;20308;-90
2024/04/24 08:51:15;;;;;;;9.57;7.03;;;9.20;43.00;;;;;;5346727;26;20241;-91
2024/04/24 08:53:59;;;;;;;8.38;7.28;;;9.30;42.40;;;;;;5348790;26;20355;-90
2024/04/24 08:56:36;;;;;;;7.68;6.82;;;9.30;38.80;;;;;;5331606;26;20241;-90
2024/04/24 08:59:09;;;;;;;8.90;7.47;;;9.10;43.10;;;;;;5341931;26;20579;-90
2024/04/24 09:01:41;;;;;;;10.45;7.15;;;9.00;44.30;;;;;;5340265;26;20234;-90
2024/04/24 09:04:10;;;;;;;7.40;6.60;;;9.40;42.10;;;;;;5335549;26;20788;-90
2024/04/24 09:06:40;;;;;;;7.97;7.18;;;9.80;42.40;;;;;;5337083;26;20334;-91
2024/04/24 09:09:12;;;;;;;8.20;6.82;;;10.00;38.40;;;;;;5335613;26;20298;-90
2024/04/24 09:11:44;;;;;;;7.25;6.55;;;10.90;36.40;;;;;;5306363;26;20238;-91
2024/04/24 09:14:12;;;;;;;7.65;6.93;;;12.30;26.70;;;;;;5331042;26;21124;-89
2024/04/24 09:16:44;;;;;;;8.50;7.47;;;12.70;23.80;;;;;;5346160;26;20297;-89
2024/04/24 09:19:13;;;;;;;8.20;6.50;;;12.20;25.50;;;;;;5338742;26;20734;-88
2024/04/24 09:21:42;;;;;;;7.38;6.50;;;11.90;22.40;;;;;;5333366;26;20260;-90
2024/04/24 09:24:11;;;;;;;6.53;5.93;;;10.90;25.50;;;;;;5344516;26;20281;-91
2024/04/24 09:26:39;;;;;;;8.95;6.85;;;10.40;25.60;;;;;;5332784;26;20234;-90
2024/04/24 09:29:11;;;;;;;7.70;6.50;;;9.60;34.10;;;;;;5335476;26;20685;-90
2024/04/24 09:31:40;;;;;;;7.72;6.70;;;9.10;38.00;;;;;;5340026;26;20241;-90
2024/04/24 09:34:09;;;;;;;7.35;6.65;;;8.80;38.60;;;;;;5348438;26;20359;-90
2024/04/24 09:36:40;;;;;;;7.22;6.53;;;8.60;38.80;;;;;;5344541;26;20233;-90
2024/04/24 09:39:10;;;;;;;6.50;5.47;;;8.40;44.50;;;;;;5333067;26;20284;-90
2024/04/24 09:41:39;;;;;;;7.00;5.43;;;8.40;29.80;;;;;;5345906;26;20237;-90
2024/04/24 09:44:15;;;;;;;6.38;5.10;;;8.10;31.50;;;;;;5341587;26;20268;-90
2024/04/24 09:46:51;;;;;;;9.18;5.18;;;8.30;31.50;;;;;;5341096;26;20245;-90
2024/04/24 09:49:20;;;;;;;5.70;5.10;;;8.70;29.10;;;;;;5315675;26;20385;-90
2024/04/24 09:51:49;;;;;;;6.65;5.63;;;8.80;30.10;;;;;;5335903;26;20276;-89
2024/04/24 09:54:20;;;;;;;6.32;5.38;;;9.00;30.00;;;;;;5345397;26;20749;-89
2024/04/24 09:56:52;;;;;;;7.60;5.40;;;9.20;28.90;;;;;;5343281;26;20230;-90
2024/04/24 09:59:28;;;;;;;6.88;5.13;;;9.40;26.90;;;;;;5334158;26;20237;-90
2024/04/24 10:02:03;;;;;;;8.15;5.85;;;9.10;29.00;;;;;;5337674;26;20233;-90
2024/04/24 10:04:33;;;;;;;6.22;5.20;;;9.00;30.00;;;;;;5334538;26;20340;-90
2024/04/24 10:07:05;;;;;;;5.45;4.70;;;9.00;28.50;;;;;;5348089;26;20302;-90
2024/04/24 10:09:36;;;;;;;4.55;4.13;;;8.90;28.10;;;;;;5340535;26;20311;-90
2024/04/24 10:12:09;;;;;;;5.95;4.18;;;8.70;26.00;;;;;;5336171;26;20360;-90
2024/04/24 10:14:50;;;;;;;6.75;4.15;;;8.60;24.10;;;;;;5329242;26;20375;-90
2024/04/24 10:17:20;;;;;;;5.70;4.22;;;8.50;28.50;;;;;;5327650;26;20330;-90
2024/04/24 10:19:50;;;;;;;5.22;4.40;;;8.00;31.30;;;;;;5343548;26;20307;-90
2024/04/24 10:22:20;;;;;;;5.72;4.47;;;7.70;36.90;;;;;;5334550;26;20236;-90
2024/04/24 10:24:50;;;;;;;6.22;4.93;;;7.60;40.20;;;;;;5339926;26;20331;-90
2024/04/24 10:27:23;;;;;;;5.07;4.57;;;7.60;42.20;;;;;;5348327;26;20252;-90
2024/04/24 10:29:55;;;;;;;14.05;5.05;;;7.70;44.40;;;;;;5349018;26;20229;-90
2024/04/24 10:32:25;;;;;;;5.35;4.85;;;7.90;43.30;;;;;;5337330;26;20763;-90
2024/04/24 10:34:55;;;;;;;5.70;4.43;;;8.10;43.60;;;;;;5331273;26;20326;-90
2024/04/24 10:37:24;;;;;;;5.95;4.57;;;8.40;47.00;;;;;;5343512;26;20368;-90
2024/04/24 10:39:52;;;;;;;5.03;4.35;;;8.90;39.10;;;;;;5334908;26;20242;-90
2024/04/24 10:42:21;;;;;;;6.03;4.47;;;9.10;36.10;;;;;;5345252;26;20290;-90
2024/04/24 10:44:52;;;;;;;6.10;4.82;;;9.20;32.40;;;;;;5340211;26;20249;-90
2024/04/24 10:47:23;;;;;;;5.65;4.57;;;8.80;34.50;;;;;;5329442;26;20718;-90
2024/04/24 10:49:56;;;;;;;5.47;4.43;;;8.60;33.70;;;;;;5344760;26;20356;-90
2024/04/24 10:52:26;;;;;;;6.13;4.63;;;8.80;35.90;;;;;;5355450;26;20884;-90
2024/04/24 10:54:56;;;;;;;5.70;4.72;;;8.70;32.50;;;;;;5345546;26;20276;-89
2024/04/24 10:57:33;;;;;;;6.85;4.95;;;8.80;31.00;;;;;;5340193;26;20248;-90
2024/04/24 11:00:15;;;;;;;4.95;4.40;;;9.20;30.30;;;;;;5340646;26;20233;-90
2024/04/24 11:02:47;;;;;;;7.35;4.60;;;10.00;23.60;;;;;;5333862;26;20281;-90
2024/04/24 11:05:16;;;;;;;5.38;4.80;;;10.50;22.00;;;;;;5339015;26;20323;-90
2024/04/24 11:07:45;;;;;;;5.03;4.28;;;10.80;22.70;;;;;;5319064;26;20282;-90
2024/04/24 11:10:13;;;;;;;6.30;4.15;;;10.90;19.90;;;;;;5336260;26;20577;-90
2024/04/24 11:12:43;;;;;;;4.97;4.10;;;10.90;24.40;;;;;;5344994;26;20289;-90
2024/04/24 11:15:22;;;;;;;4.95;3.58;;;10.80;24.30;;;;;;5344986;26;20225;-90
2024/04/24 11:17:53;;;;;;;4.95;3.33;;;10.60;18.70;;;;;;5341546;26;20327;-90
2024/04/24 11:20:24;;;;;;;3.38;2.40;;;10.50;19.10;;;;;;5336499;26;20368;-89
2024/04/24 11:22:53;;;;;;;3.83;2.40;;;10.30;18.40;;;;;;5342053;26;20253;-89
2024/04/24 11:25:24;;;;;;;2.60;2.40;;;10.50;16.70;;;;;;5327534;26;20233;-88
2024/04/24 11:27:53;;;;;;;5.10;2.60;;;10.60;16.00;;;;;;5323719;26;20238;-89
2024/04/24 11:30:22;;;;;;;4.07;2.90;;;10.80;14.70;;;;;;5330344;26;20333;-89
2024/04/24 11:32:55;;;;;;;3.00;2.80;;;11.10;12.40;;;;;;5321367;26;20294;-91
2024/04/24 11:35:26;;;;;;;3.63;3.00;;;11.00;14.90;;;;;;5335486;26;20356;-89
2024/04/24 11:37:55;;;;;;;3.63;3.15;;;11.10;17.80;;;;;;5332181;26;20239;-90
2024/04/24 11:40:24;;;;;;;3.65;3.22;;;10.90;17.00;;;;;;5324787;26;20242;-91
2024/04/24 11:42:53;;;;;;;3.83;3.45;;;11.00;17.10;;;;;;5336073;26;20242;-91
2024/04/24 11:45:22;;;;;;;5.18;3.13;;;10.70;21.30;;;;;;5333291;26;20295;-91
2024/04/24 11:47:55;;;;;;;3.83;3.45;;;10.70;19.50;;;;;;5334669;26;20699;-90
2024/04/24 11:50:23;;;;;;;4.07;3.58;;;10.80;19.80;;;;;;5334986;26;20247;-90
2024/04/24 11:52:53;;;;;;;3.65;3.30;;;10.40;19.90;;;;;;5328804;26;20289;-91
2024/04/24 11:55:22;;;;;;;5.03;3.38;;;10.00;23.10;;;;;;5338906;26;21010;-90
2024/04/24 11:57:50;;;;;;;5.13;3.35;;;9.60;24.70;;;;;;5321467;26;20768;-90
2024/04/24 12:00:19;;;;;;;5.65;4.40;;;8.90;28.10;;;;;;5333319;26;20309;-91
2024/04/24 12:02:48;;;;;;;5.32;4.22;;;8.20;43.60;;;;;;5330599;26;20277;-90
2024/04/24 12:05:19;;;;;;;5.18;4.68;;;7.40;58.40;;;;;;5329183;26;20238;-90
2024/04/24 12:07:48;;;;;;;5.45;4.93;;;6.80;67.00;;;;;;5329859;26;20273;-88
2024/04/24 12:10:26;;;;;;;7.15;4.57;;;6.60;80.70;;;;;;5330851;26;20272;-91
2024/04/24 12:12:57;;;;;;;5.97;4.38;;;7.00;84.50;;;;;;5325589;26;20276;-94
2024/04/24 12:15:27;;;;;;;5.55;4.03;;;7.70;82.20;;;;;;5339288;26;20360;-89
2024/04/24 12:17:55;;;;;;;7.22;4.20;;;8.60;62.60;;;;;;5337304;26;20280;-90
2024/04/24 12:20:27;;;;;;;5.55;4.40;;;9.00;52.10;;;;;;5337841;26;20241;-90
2024/04/24 12:22:56;;;;;;;5.85;4.25;;;8.80;51.30;;;;;;5327388;26;20238;-90
2024/04/24 12:25:24;;;;;;;4.63;4.15;;;8.80;50.80;;;;;;5326391;26;20234;-89
2024/04/24 12:27:53;;;;;;;5.13;4.07;;;8.90;51.20;;;;;;5325739;26;20338;-89
2024/04/24 12:30:22;;;;;;;5.05;3.90;;;9.20;45.20;;;;;;5342683;26;20600;-89
2024/04/24 12:32:50;;;;;;;4.00;3.60;;;9.30;41.90;;;;;;5345216;26;20296;-89
2024/04/24 12:35:19;;;;;;;4.03;3.05;;;9.60;40.10;;;;;;5341389;26;20245;-90
2024/04/24 12:37:50;;;;;;;3.20;2.90;;;10.00;34.20;;;;;;5326282;26;20391;-90
2024/04/24 12:40:19;;;;;;;3.78;3.38;;;10.30;27.10;;;;;;5330799;26;20272;-90
2024/04/24 12:42:47;;;;;;;3.50;3.20;;;10.40;25.90;;;;;;5321319;26;20250;-91
2024/04/24 12:45:16;;;;;;;4.97;3.53;;;10.50;26.30;;;;;;5336150;26;20242;-90
2024/04/24 12:47:45;;;;;;;3.85;3.45;;;10.60;24.10;;;;;;5333708;26;20243;-90
2024/04/24 12:50:14;;;;;;;6.43;3.83;;;10.80;24.30;;;;;;5342317;26;20271;-90
2024/04/24 12:52:42;;;;;;;4.20;3.45;;;11.10;19.90;;;;;;5340823;26;20242;-90
2024/04/24 12:55:15;;;;;;;4.20;3.80;;;11.10;19.50;;;;;;5335724;26;20273;-89
2024/04/24 12:57:44;;;;;;;5.65;3.40;;;10.90;21.60;;;;;;5346672;26;20805;-89